createdAt,value
2023-04-28T00:00:20.040Z,12.65
2023-04-28T00:02:49.005Z,12.65
2023-04-28T00:05:17.006Z,12.63
2023-04-28T00:07:46.016Z,12.55
2023-04-28T00:10:13.582Z,12.39
2023-04-28T00:12:41.093Z,12.27
2023-04-28T00:15:09.357Z,12.19
2023-04-28T00:17:36.772Z,12.16
2023-04-28T00:20:05.618Z,12.16
2023-04-28T00:22:33.470Z,12.15
2023-04-28T00:25:02.451Z,12.18
2023-04-28T00:27:33.483Z,12.16
2023-04-28T00:30:01.043Z,12.16
2023-04-28T00:32:34.100Z,12.13
2023-04-28T00:35:02.488Z,12.12
2023-04-28T00:37:36.315Z,12.10
2023-04-28T00:40:32.465Z,12.09
2023-04-28T00:42:59.962Z,11.98
2023-04-28T00:45:28.573Z,11.96
2023-04-28T00:47:58.883Z,11.87
2023-04-28T00:50:27.582Z,11.79
2023-04-28T00:52:55.435Z,11.74
2023-04-28T00:55:25.068Z,11.75
2023-04-28T00:57:52.837Z,11.78
2023-04-28T01:00:20.376Z,11.77
2023-04-28T01:02:48.018Z,11.76
2023-04-28T01:05:17.050Z,11.77
2023-04-28T01:07:44.873Z,11.76
2023-04-28T01:10:12.319Z,11.73
2023-04-28T01:12:41.199Z,11.67
2023-04-28T01:15:15.647Z,11.61
2023-04-28T01:17:44.278Z,11.55
2023-04-28T01:20:12.136Z,11.45
2023-04-28T01:22:40.154Z,11.29
2023-04-28T01:25:10.521Z,11.17
2023-04-28T01:27:38.547Z,11.10
2023-04-28T01:30:07.768Z,11.08
2023-04-28T01:32:35.588Z,11.13
2023-04-28T01:35:03.724Z,11.18
2023-04-28T01:37:31.388Z,11.20
2023-04-28T01:39:58.761Z,11.22
2023-04-28T01:42:27.635Z,11.23
2023-04-28T01:44:55.039Z,11.25
2023-04-28T01:47:22.619Z,11.25
2023-04-28T01:49:50.475Z,11.24
2023-04-28T01:52:19.916Z,11.26
2023-04-28T01:54:47.832Z,11.32
2023-04-28T01:57:17.293Z,11.38
2023-04-28T01:59:46.975Z,11.42
2023-04-28T02:02:16.558Z,11.40
2023-04-28T02:04:44.234Z,11.40
2023-04-28T02:07:11.640Z,11.38
2023-04-28T02:09:39.124Z,11.36
2023-04-28T02:12:06.982Z,11.35
2023-04-28T02:14:34.722Z,11.33
2023-04-28T02:17:05.574Z,11.32
2023-04-28T02:19:33.922Z,11.30
2023-04-28T02:22:01.509Z,11.25
2023-04-28T02:24:28.873Z,11.20
2023-04-28T02:26:59.063Z,11.18
2023-04-28T02:29:28.422Z,11.14
2023-04-28T02:31:58.606Z,11.18
2023-04-28T02:34:27.808Z,11.25
2023-04-28T02:36:55.166Z,11.37
2023-04-28T02:39:25.558Z,11.40
2023-04-28T02:41:53.494Z,11.40
2023-04-28T02:44:21.689Z,11.42
2023-04-28T02:46:49.089Z,11.46
2023-04-28T02:49:16.568Z,11.48
2023-04-28T02:51:45.992Z,11.53
2023-04-28T02:54:13.578Z,11.52
2023-04-28T02:56:41.493Z,11.56
2023-04-28T02:59:08.886Z,11.57
2023-04-28T03:01:36.463Z,11.58
2023-04-28T03:04:04.280Z,11.59
2023-04-28T03:06:31.956Z,11.56
2023-04-28T03:09:01.895Z,11.47
2023-04-28T03:11:29.313Z,11.45
2023-04-28T03:13:56.857Z,11.46
2023-04-28T03:16:24.344Z,11.45
2023-04-28T03:18:51.683Z,11.46
2023-04-28T03:21:20.037Z,11.44
2023-04-28T03:23:47.752Z,11.50
2023-04-28T03:26:16.825Z,11.48
2023-04-28T03:28:44.832Z,11.47
2023-04-28T03:31:12.197Z,11.49
2023-04-28T03:33:39.528Z,11.48
2023-04-28T03:36:07.859Z,11.53
2023-04-28T03:38:35.296Z,11.54
2023-04-28T03:41:02.724Z,11.51
2023-04-28T03:43:53.508Z,11.53
2023-04-28T03:46:30.176Z,11.60
2023-04-28T03:48:58.657Z,11.70
2023-04-28T03:51:26.221Z,11.80
2023-04-28T03:53:53.665Z,11.88
2023-04-28T03:56:21.277Z,11.94
2023-04-28T03:58:48.665Z,11.96
2023-04-28T04:01:17.592Z,12.01
2023-04-28T04:03:45.338Z,12.05
2023-04-28T04:06:13.633Z,12.10
2023-04-28T04:08:42.010Z,12.13
2023-04-28T04:11:11.330Z,12.16
2023-04-28T04:13:38.936Z,12.16
2023-04-28T04:16:09.980Z,12.17
2023-04-28T04:18:38.936Z,12.19
2023-04-28T04:21:14.798Z,12.20
2023-04-28T04:23:42.181Z,12.20
2023-04-28T04:26:09.537Z,12.18
2023-04-28T04:28:37.534Z,12.17
2023-04-28T04:31:06.749Z,12.15
2023-04-28T04:33:34.848Z,12.15
2023-04-28T04:36:05.060Z,12.18
2023-04-28T04:38:33.394Z,12.15
2023-04-28T04:41:10.030Z,12.24
2023-04-28T04:43:37.503Z,12.25
2023-04-28T04:46:05.109Z,12.27
2023-04-28T04:48:32.988Z,12.34
2023-04-28T04:51:01.115Z,12.40
2023-04-28T04:53:29.754Z,12.47
2023-04-28T04:55:58.022Z,12.52
2023-04-28T04:58:26.746Z,12.53
2023-04-28T05:01:20.657Z,12.59
2023-04-28T05:03:48.393Z,12.62
2023-04-28T05:06:16.137Z,12.64
2023-04-28T05:08:47.903Z,12.67
2023-04-28T05:11:15.927Z,12.70
2023-04-28T05:13:44.832Z,12.77
2023-04-28T05:16:13.197Z,12.83
2023-04-28T05:19:00.882Z,12.89
2023-04-28T05:21:28.799Z,13.01
2023-04-28T05:23:57.791Z,13.08
2023-04-28T05:26:25.514Z,13.17
2023-04-28T05:28:56.019Z,13.24
2023-04-28T05:31:23.660Z,13.33
2023-04-28T05:33:51.897Z,13.43
2023-04-28T05:36:19.666Z,13.55
2023-04-28T05:38:47.716Z,13.67
2023-04-28T05:41:16.577Z,13.79
2023-04-28T05:43:44.591Z,13.88
2023-04-28T05:46:28.312Z,13.93
2023-04-28T05:49:13.058Z,13.96
2023-04-28T05:51:48.813Z,13.93
2023-04-28T05:54:17.006Z,13.92
2023-04-28T05:56:48.704Z,13.89
2023-04-28T05:59:16.759Z,13.89
2023-04-28T06:01:44.242Z,13.82
2023-04-28T06:04:12.247Z,13.80
2023-04-28T06:06:39.683Z,13.83
2023-04-28T06:09:07.227Z,13.90
2023-04-28T06:11:34.496Z,13.94
2023-04-28T06:14:03.422Z,13.95
2023-04-28T06:16:31.110Z,13.97
2023-04-28T06:18:58.533Z,13.89
2023-04-28T06:21:27.541Z,13.84
2023-04-28T06:23:54.885Z,13.81
2023-04-28T06:26:22.715Z,13.82
2023-04-28T06:28:50.917Z,13.81
2023-04-28T06:31:19.629Z,13.86
2023-04-28T06:33:46.990Z,13.83
2023-04-28T06:36:14.333Z,13.89
2023-04-28T06:38:43.307Z,13.98
2023-04-28T06:41:13.390Z,14.02
2023-04-28T06:43:43.124Z,14.06
2023-04-28T06:46:15.278Z,14.14
2023-04-28T06:48:45.299Z,14.22
2023-04-28T06:51:12.928Z,14.20
2023-04-28T06:53:40.888Z,14.21
2023-04-28T06:56:11.032Z,14.20
2023-04-28T06:58:39.159Z,14.15
2023-04-28T07:01:06.859Z,14.06
2023-04-28T07:03:34.540Z,14.03
2023-04-28T07:06:04.373Z,14.01
2023-04-28T07:08:32.044Z,13.88
2023-04-28T07:10:59.441Z,13.78
2023-04-28T07:13:27.213Z,13.81
2023-04-28T07:15:55.024Z,13.82
2023-04-28T07:18:22.876Z,13.87
2023-04-28T07:20:50.931Z,13.82
2023-04-28T07:23:19.922Z,13.76
2023-04-28T07:25:47.442Z,13.72
2023-04-28T07:28:14.799Z,13.69
2023-04-28T07:30:42.365Z,13.69
2023-04-28T07:33:10.033Z,13.71
2023-04-28T07:35:37.543Z,13.78
2023-04-28T07:38:04.995Z,13.89
2023-04-28T07:40:33.734Z,14.07
2023-04-28T07:43:01.551Z,14.10
2023-04-28T07:45:29.173Z,14.19
2023-04-28T07:47:56.854Z,14.26
2023-04-28T07:50:36.489Z,14.33
2023-04-28T07:53:03.963Z,14.37
2023-04-28T07:55:31.684Z,14.29
2023-04-28T07:58:00.662Z,14.19
2023-04-28T08:00:28.106Z,14.08
2023-04-28T08:02:56.980Z,13.99
2023-04-28T08:05:25.126Z,13.92
2023-04-28T08:07:52.724Z,13.91
2023-04-28T08:10:20.553Z,13.91
2023-04-28T08:12:47.940Z,13.91
2023-04-28T08:15:18.311Z,13.84
2023-04-28T08:17:45.852Z,13.73
2023-04-28T08:20:15.593Z,13.65
2023-04-28T08:22:45.378Z,13.58
2023-04-28T08:25:12.774Z,13.60
2023-04-28T08:27:40.237Z,13.59
2023-04-28T08:30:09.245Z,13.54
2023-04-28T08:32:40.621Z,13.54
2023-04-28T08:35:08.729Z,13.54
2023-04-28T08:37:36.418Z,13.50
2023-04-28T08:40:09.687Z,13.46
2023-04-28T08:42:45.701Z,13.45
2023-04-28T08:45:17.299Z,13.44
2023-04-28T08:47:50.101Z,13.32
2023-04-28T08:50:22.841Z,13.30
2023-04-28T08:52:57.154Z,13.27
2023-04-28T08:55:26.456Z,13.26
2023-04-28T08:57:55.384Z,13.33
2023-04-28T09:00:23.415Z,13.38
2023-04-28T09:02:52.476Z,13.55
2023-04-28T09:05:19.956Z,13.71
2023-04-28T09:07:48.943Z,13.79
2023-04-28T09:10:21.605Z,13.73
2023-04-28T09:12:52.360Z,13.76
2023-04-28T09:15:33.523Z,13.75
2023-04-28T09:18:03.793Z,13.79
2023-04-28T09:20:35.491Z,13.98
2023-04-28T09:23:17.670Z,14.05
2023-04-28T09:26:00.132Z,14.13
2023-04-28T09:28:28.485Z,14.26
2023-04-28T09:30:56.190Z,14.33
2023-04-28T09:33:28.423Z,14.31
2023-04-28T09:35:56.632Z,14.32
2023-04-28T09:38:24.499Z,14.26
2023-04-28T09:40:54.204Z,14.23
2023-04-28T09:43:30.047Z,14.20
2023-04-28T09:46:01.180Z,14.15
2023-04-28T09:48:32.311Z,14.26
2023-04-28T09:51:01.233Z,14.31
2023-04-28T09:53:30.857Z,14.30
2023-04-28T09:55:59.670Z,14.35
2023-04-28T09:58:28.526Z,14.42
2023-04-28T10:00:58.235Z,14.49
2023-04-28T10:03:29.634Z,14.57
2023-04-28T10:05:59.518Z,14.67
2023-04-28T10:08:28.010Z,14.77
2023-04-28T10:10:57.025Z,14.88
2023-04-28T10:13:24.786Z,14.89
2023-04-28T10:15:58.494Z,14.87
2023-04-28T10:18:26.542Z,14.92
2023-04-28T10:20:58.445Z,14.91
2023-04-28T10:23:48.174Z,15.02
2023-04-28T10:26:23.392Z,15.09
2023-04-28T10:28:52.248Z,15.16
2023-04-28T10:31:21.447Z,15.22
2023-04-28T10:33:49.724Z,15.27
2023-04-28T10:36:47.553Z,15.24
2023-04-28T10:39:16.963Z,15.09
2023-04-28T10:41:46.758Z,14.99
2023-04-28T10:44:42.089Z,15.01
2023-04-28T10:47:10.319Z,15.04
2023-04-28T10:50:09.172Z,15.08
2023-04-28T10:52:49.300Z,15.04
2023-04-28T10:55:37.477Z,14.86
2023-04-28T10:58:35.544Z,14.78
2023-04-28T11:01:25.751Z,14.48
2023-04-28T11:04:04.548Z,14.08
2023-04-28T11:06:34.827Z,13.81
2023-04-28T11:09:44.796Z,13.66
2023-04-28T11:12:13.649Z,13.58
2023-04-28T11:14:43.794Z,13.66
2023-04-28T11:17:13.950Z,13.79
2023-04-28T11:19:43.434Z,13.94
2023-04-28T11:22:24.381Z,14.04
2023-04-28T11:24:59.058Z,14.08
2023-04-28T11:27:28.836Z,14.10
2023-04-28T11:29:58.481Z,14.07
2023-04-28T11:32:29.995Z,14.15
2023-04-28T11:34:59.819Z,14.10
2023-04-28T11:37:27.427Z,14.08
2023-04-28T11:39:55.023Z,14.10
2023-04-28T11:42:22.392Z,14.06
2023-04-28T11:44:57.670Z,14.05
2023-04-28T11:47:34.843Z,14.10
2023-04-28T11:50:08.556Z,14.18
2023-04-28T11:52:36.139Z,14.25
2023-04-28T11:55:05.082Z,14.31
2023-04-28T11:57:33.045Z,14.32
2023-04-28T12:00:15.247Z,14.31
2023-04-28T12:02:43.190Z,14.35
2023-04-28T12:05:14.820Z,14.38
2023-04-28T12:07:44.777Z,14.47
2023-04-28T12:10:13.874Z,14.57
2023-04-28T12:12:50.983Z,14.72
2023-04-28T12:15:22.899Z,14.88
2023-04-28T12:17:51.936Z,14.98
2023-04-28T12:20:36.526Z,14.93
2023-04-28T12:23:05.511Z,14.79
2023-04-28T12:25:35.319Z,14.61
2023-04-28T12:28:05.067Z,14.37
2023-04-28T12:30:35.136Z,14.31
2023-04-28T12:33:02.957Z,14.20
2023-04-28T12:35:30.772Z,14.03
2023-04-28T12:37:59.211Z,13.96
2023-04-28T12:40:27.319Z,13.88
2023-04-28T12:42:55.081Z,13.84
2023-04-28T12:45:22.838Z,13.91
2023-04-28T12:47:51.683Z,13.86
2023-04-28T12:50:19.421Z,13.86
2023-04-28T12:52:46.899Z,13.81
2023-04-28T12:55:14.226Z,13.80
2023-04-28T12:57:42.119Z,13.79
2023-04-28T13:00:10.611Z,13.84
2023-04-28T13:02:38.436Z,13.79
2023-04-28T13:05:09.416Z,13.78
2023-04-28T13:07:36.909Z,13.79
2023-04-28T13:10:04.812Z,13.85
2023-04-28T13:12:33.645Z,13.86
2023-04-28T13:15:02.094Z,13.79
2023-04-28T13:17:34.016Z,13.79
2023-04-28T13:20:03.765Z,13.79
2023-04-28T13:22:37.014Z,13.87
2023-04-28T13:25:04.953Z,13.93
2023-04-28T13:27:33.448Z,13.91
2023-04-28T13:30:01.012Z,13.83
2023-04-28T13:32:28.390Z,13.71
2023-04-28T13:34:55.996Z,13.58
2023-04-28T13:37:23.291Z,13.47
2023-04-28T13:39:52.364Z,13.40
2023-04-28T13:42:19.553Z,13.28
2023-04-28T13:44:49.315Z,13.21
2023-04-28T13:47:16.819Z,13.11
2023-04-28T13:49:44.415Z,13.07
2023-04-28T13:52:11.741Z,13.05
2023-04-28T13:54:39.623Z,13.04
2023-04-28T13:57:08.727Z,13.04
2023-04-28T13:59:36.131Z,13.04
2023-04-28T14:02:04.159Z,13.01
2023-04-28T14:04:31.800Z,12.88
2023-04-28T14:06:59.629Z,12.77
2023-04-28T14:09:27.050Z,12.66
2023-04-28T14:11:56.858Z,12.61
2023-04-28T14:14:25.633Z,12.48
2023-04-28T14:16:53.135Z,12.41
2023-04-28T14:19:21.177Z,12.38
2023-04-28T14:21:48.817Z,12.37
2023-04-28T14:24:16.177Z,12.27
2023-04-28T14:26:44.166Z,12.14
2023-04-28T14:29:11.900Z,12.10
2023-04-28T14:31:41.218Z,12.05
2023-04-28T14:34:08.755Z,12.06
2023-04-28T14:36:38.392Z,12.08
2023-04-28T14:39:06.035Z,12.08
2023-04-28T14:41:33.396Z,12.07
2023-04-28T14:44:01.076Z,12.11
2023-04-28T14:46:28.709Z,12.02
2023-04-28T14:48:58.558Z,11.96
2023-04-28T14:51:26.245Z,11.79
2023-04-28T14:53:53.643Z,11.68
2023-04-28T14:56:21.044Z,11.68
2023-04-28T14:58:49.084Z,11.71
2023-04-28T15:01:17.493Z,11.73
2023-04-28T15:03:45.334Z,11.71
2023-04-28T15:06:14.383Z,11.63
2023-04-28T15:08:41.825Z,11.63
2023-04-28T15:11:09.635Z,11.65
2023-04-28T15:13:37.074Z,11.68
2023-04-28T15:16:06.199Z,11.68
2023-04-28T15:18:33.654Z,11.63
2023-04-28T15:21:01.863Z,11.56
2023-04-28T15:23:30.612Z,11.50
2023-04-28T15:25:58.099Z,11.35
2023-04-28T15:28:25.987Z,11.20
2023-04-28T15:30:53.264Z,11.05
2023-04-28T15:33:20.986Z,10.96
2023-04-28T15:35:48.609Z,10.84
2023-04-28T15:38:17.394Z,10.87
2023-04-28T15:40:46.279Z,10.89
2023-04-28T15:43:13.862Z,10.89
2023-04-28T15:45:41.692Z,10.79
2023-04-28T15:48:10.223Z,10.74
2023-04-28T15:50:37.809Z,10.73
2023-04-28T15:53:05.434Z,10.75
2023-04-28T15:55:33.042Z,10.73
2023-04-28T15:58:02.221Z,10.68
2023-04-28T16:00:29.996Z,10.70
2023-04-28T16:02:57.579Z,10.67
2023-04-28T16:05:25.266Z,10.67
2023-04-28T16:07:52.974Z,10.71
2023-04-28T16:10:20.329Z,10.77
2023-04-28T16:12:54.772Z,10.76
2023-04-28T16:15:23.742Z,10.81
2023-04-28T16:18:13.575Z,10.72
2023-04-28T16:20:44.344Z,10.70
2023-04-28T16:23:14.733Z,10.67
2023-04-28T16:26:34.640Z,10.74
2023-04-28T16:29:02.394Z,10.68
2023-04-28T16:31:31.411Z,10.64
2023-04-28T16:33:58.617Z,10.62
2023-04-28T16:37:15.323Z,10.62
2023-04-28T16:40:46.172Z,10.51
2023-04-28T16:43:13.577Z,10.42
2023-04-28T16:45:40.808Z,10.38
2023-04-28T16:48:24.957Z,10.37
2023-04-28T16:50:52.404Z,10.30
2023-04-28T16:53:19.939Z,10.23
2023-04-28T16:55:47.849Z,9.93
2023-04-28T16:58:15.344Z,9.90
2023-04-28T17:00:42.997Z,9.78
2023-04-28T17:03:10.814Z,9.74
2023-04-28T17:05:39.734Z,9.69
2023-04-28T17:08:07.195Z,9.73
2023-04-28T17:10:37.365Z,9.69
2023-04-28T17:13:04.892Z,9.72
2023-04-28T17:15:32.550Z,9.75
2023-04-28T17:18:00.402Z,9.69
2023-04-28T17:20:27.873Z,9.72
2023-04-28T17:22:57.333Z,9.65
2023-04-28T17:25:24.763Z,9.51
2023-04-28T17:27:52.339Z,9.56
2023-04-28T17:30:20.006Z,9.49
2023-04-28T17:32:47.688Z,9.35
2023-04-28T17:35:15.071Z,9.40
2023-04-28T17:37:42.418Z,9.36
2023-04-28T17:40:12.637Z,9.11
2023-04-28T17:42:40.246Z,9.07
2023-04-28T17:45:08.852Z,9.06
2023-04-28T17:47:38.992Z,9.01
2023-04-28T17:50:07.656Z,8.91
2023-04-28T17:52:35.072Z,9.00
2023-04-28T17:55:04.411Z,9.05
2023-04-28T17:57:33.641Z,9.12
2023-04-28T18:00:01.752Z,9.14
2023-04-28T18:02:39.472Z,9.15
2023-04-28T18:05:07.769Z,9.04
2023-04-28T18:07:35.514Z,9.00
2023-04-28T18:10:02.954Z,8.92
2023-04-28T18:12:30.789Z,8.87
2023-04-28T18:14:59.548Z,8.82
2023-04-28T18:17:27.152Z,8.87
2023-04-28T18:19:56.915Z,8.95
2023-04-28T18:22:24.865Z,8.94
2023-04-28T18:24:53.185Z,8.95
2023-04-28T18:27:20.434Z,9.08
2023-04-28T18:29:47.788Z,9.05
2023-04-28T18:32:16.757Z,8.92
2023-04-28T18:34:44.400Z,8.86
2023-04-28T18:37:11.815Z,8.67
2023-04-28T18:39:39.121Z,8.63
2023-04-28T18:42:06.785Z,8.66
2023-04-28T18:44:34.339Z,8.51
2023-04-28T18:47:01.771Z,8.47
2023-04-28T18:49:30.623Z,8.45
2023-04-28T18:52:02.558Z,8.44
2023-04-28T18:54:31.183Z,8.41
2023-04-28T18:56:59.818Z,8.44
2023-04-28T18:59:27.254Z,8.49
2023-04-28T19:01:54.699Z,8.42
2023-04-28T19:04:22.985Z,8.38
2023-04-28T19:06:52.029Z,8.38
2023-04-28T19:09:19.419Z,8.39
2023-04-28T19:11:47.063Z,8.42
2023-04-28T19:14:14.440Z,8.44
2023-04-28T19:16:42.440Z,8.45
2023-04-28T19:19:09.989Z,8.41
2023-04-28T19:21:43.671Z,8.32
2023-04-28T19:24:13.019Z,8.23
2023-04-28T19:26:40.570Z,8.18
2023-04-28T19:29:07.961Z,8.15
2023-04-28T19:31:35.461Z,8.08
2023-04-28T19:34:03.006Z,8.04
2023-04-28T19:36:30.287Z,7.99
2023-04-28T19:38:57.623Z,7.97
2023-04-28T19:41:26.899Z,7.93
2023-04-28T19:43:54.394Z,7.91
2023-04-28T19:46:22.043Z,7.75
2023-04-28T19:48:49.405Z,7.57
2023-04-28T19:51:17.096Z,7.42
2023-04-28T19:53:46.505Z,7.30
2023-04-28T19:56:16.275Z,7.19
2023-04-28T19:58:47.875Z,7.20
2023-04-28T20:01:16.090Z,7.07
2023-04-28T20:03:43.882Z,6.97
2023-04-28T20:06:15.644Z,6.91
2023-04-28T20:08:44.039Z,6.90
2023-04-28T20:11:11.585Z,6.90
2023-04-28T20:13:38.868Z,6.89
2023-04-28T20:16:07.860Z,6.90
2023-04-28T20:18:35.981Z,6.93
2023-04-28T20:21:03.680Z,7.01
2023-04-28T20:23:31.084Z,7.02
2023-04-28T20:25:59.405Z,6.99
2023-04-28T20:28:27.498Z,6.98
2023-04-28T20:30:54.890Z,7.00
2023-04-28T20:33:24.293Z,7.04
2023-04-28T20:35:51.607Z,7.06
2023-04-28T20:38:19.938Z,7.04
2023-04-28T20:40:47.199Z,7.05
2023-04-28T20:43:14.754Z,7.05
2023-04-28T20:45:42.501Z,7.05
2023-04-28T20:48:10.758Z,7.02
2023-04-28T20:50:41.160Z,7.01
2023-04-28T20:53:09.251Z,6.96
2023-04-28T20:55:36.720Z,6.93
2023-04-28T20:58:04.936Z,6.92
2023-04-28T21:00:33.932Z,6.91
2023-04-28T21:03:04.834Z,6.86
2023-04-28T21:05:32.688Z,6.81
2023-04-28T21:08:01.414Z,6.76
2023-04-28T21:10:28.658Z,6.74
2023-04-28T21:12:56.059Z,6.71
2023-04-28T21:15:23.608Z,6.68
2023-04-28T21:17:51.125Z,6.67
2023-04-28T21:20:18.598Z,6.66
2023-04-28T21:22:45.853Z,6.65
2023-04-28T21:25:14.750Z,6.65
2023-04-28T21:27:42.688Z,6.67
2023-04-28T21:30:11.865Z,6.55
2023-04-28T21:32:39.714Z,6.51
2023-04-28T21:35:07.786Z,6.52
2023-04-28T21:37:35.277Z,6.54
2023-04-28T21:40:03.549Z,6.48
2023-04-28T21:42:34.680Z,6.50
2023-04-28T21:45:02.779Z,6.47
2023-04-28T21:47:32.706Z,6.48
2023-04-28T21:50:00.193Z,6.47
2023-04-28T21:52:27.673Z,6.44
2023-04-28T21:54:55.253Z,6.44
2023-04-28T21:57:22.616Z,6.47
2023-04-28T21:59:52.201Z,6.46
2023-04-28T22:02:20.109Z,6.47
2023-04-28T22:04:47.748Z,6.45
2023-04-28T22:07:15.116Z,6.40
2023-04-28T22:09:42.533Z,6.39
2023-04-28T22:12:09.811Z,6.37
2023-04-28T22:14:40.863Z,6.39
2023-04-28T22:17:10.003Z,6.35
2023-04-28T22:19:37.666Z,6.31
2023-04-28T22:22:05.168Z,6.30
2023-04-28T22:24:32.739Z,6.30
2023-04-28T22:27:00.219Z,6.29
2023-04-28T22:29:28.752Z,6.23
2023-04-28T22:31:56.430Z,6.19
2023-04-28T22:34:25.809Z,6.11
2023-04-28T22:36:53.186Z,6.11
2023-04-28T22:39:20.789Z,6.13
2023-04-28T22:41:48.218Z,6.17
2023-04-28T22:44:15.610Z,6.18
2023-04-28T22:46:43.066Z,6.15
2023-04-28T22:49:10.489Z,6.06
2023-04-28T22:51:39.201Z,5.97
2023-04-28T22:54:06.641Z,5.92
2023-04-28T22:56:33.934Z,5.87
2023-04-28T22:59:01.268Z,5.83
2023-04-28T23:01:29.171Z,5.81
2023-04-28T23:03:56.577Z,5.75
2023-04-28T23:06:24.027Z,5.70
2023-04-28T23:08:52.646Z,5.58
2023-04-28T23:11:20.093Z,5.55
2023-04-28T23:13:47.538Z,5.49
2023-04-28T23:16:14.996Z,5.42
2023-04-28T23:18:43.728Z,5.36
2023-04-28T23:21:12.315Z,5.33
2023-04-28T23:23:39.684Z,5.25
2023-04-28T23:26:08.503Z,5.20
2023-04-28T23:28:35.791Z,5.15
2023-04-28T23:31:03.266Z,5.14
2023-04-28T23:33:30.776Z,5.05
2023-04-28T23:35:58.159Z,4.92
2023-04-28T23:38:26.512Z,4.81
2023-04-28T23:40:53.979Z,4.73
2023-04-28T23:43:22.841Z,4.72
2023-04-28T23:45:50.204Z,4.69
2023-04-28T23:48:17.742Z,4.71
2023-04-28T23:50:45.110Z,4.71
2023-04-28T23:53:12.670Z,4.71
2023-04-28T23:55:40.170Z,4.73
2023-04-28T23:58:08.045Z,4.73
